Wednesday, May 24, 2017, 4:20 AM EDT

KLKU, Louisa, Louisa County Airport/freeman Field

Location: Louisa, VA, United States Lat: 38.01
Local Time: 4:20 AM EDT ( 8:20 GMT) Lon: -77.97
Time Zone: US/Eastern Elev: 492 ft

Show me the last for .
Show Decoded

2017-05-24 03:55 METAR KLKU 240755Z AUTO 04004KT 7SM SCT006 BKN021 OVC060 15/14 A2969 RMK AO2
                 P0001 =
2017-05-24 03:35 METAR KLKU 240735Z AUTO 03006KT 7SM SCT006 OVC021 15/14 A2971 RMK AO2 P0001 =
2017-05-24 03:15 METAR KLKU 240715Z AUTO 04005KT 5SM DZ SCT009 BKN023 OVC027 15/14 A2971 RMK AO2
                 P0001 =
2017-05-24 02:55 METAR KLKU 240655Z AUTO 05004KT 7SM BKN009 BKN021 OVC040 15/14 A2972 RMK AO2
                 P0008 =
2017-05-24 02:35 METAR KLKU 240635Z AUTO 05005KT 10SM -DZ SCT006 BKN011 OVC036 16/15 A2972 RMK
                 AO2 P0008 =
2017-05-24 02:15 METAR KLKU 240615Z AUTO 04004KT 5SM RA SCT004 BKN011 OVC038 16/15 A2971 RMK AO2
                 P0007 =
2017-05-24 01:55 METAR KLKU 240555Z AUTO 01005KT 5SM RA BKN004 OVC011 16/16 A2972 RMK AO2 P0021 =
2017-05-24 01:35 METAR KLKU 240535Z AUTO 03003KT 5SM RA BKN004 OVC024 16/16 A2971 RMK AO2 P0013 =
2017-05-24 01:15 METAR KLKU 240515Z AUTO 03004KT 5SM RA BKN006 BKN024 OVC035 16/16 A2972 RMK AO2
                 P0005 =
2017-05-24 00:55 METAR KLKU 240455Z AUTO 02005KT 4SM +DZ BKN006 OVC011 16/16 A2972 RMK AO2 P0010
                 =
2017-05-24 00:35 METAR KLKU 240435Z AUTO 01003KT 7SM +DZ OVC006 16/16 A2972 RMK AO2 P0006 =
2017-05-24 00:15 METAR KLKU 240415Z AUTO 03006KT 5SM +RA BKN006 OVC034 16/16 A2971 RMK AO2 P0005
                 =
2017-05-23 23:55 METAR KLKU 240355Z AUTO 01007KT 5SM RA BKN006 OVC021 17/16 A2972 RMK AO2 P0008 =
2017-05-23 23:35 METAR KLKU 240335Z AUTO 02006KT 7SM RA SCT006 BKN010 OVC060 17/17 A2972 RMK AO2
                 P0003 =
2017-05-23 23:15 METAR KLKU 240315Z AUTO 05007KT 7SM DZ SCT006 BKN028 OVC060 17/17 A2972 RMK AO2
                 P0002 =
2017-05-23 22:55 METAR KLKU 240255Z AUTO 05005KT 7SM RA BKN008 BKN013 OVC055 17/17 A2973 RMK AO2
                 P0004 =
2017-05-23 22:35 METAR KLKU 240235Z AUTO 06006KT 7SM -RA SCT006 BKN012 OVC017 18/17 A2974 RMK AO2
                 P0001 =
2017-05-23 22:15 METAR KLKU 240215Z AUTO 05007KT 7SM DZ BKN008 OVC017 18/17 A2973 RMK AO2 =
2017-05-23 21:55 METAR KLKU 240155Z AUTO 05004KT 7SM -DZ BKN008 OVC013 18/17 A2974 RMK AO2 P0001
                 =
2017-05-23 21:35 METAR KLKU 240135Z AUTO 04008KT 7SM BKN008 OVC012 18/17 A2973 RMK AO2 P0001 =
2017-05-23 21:15 METAR KLKU 240115Z AUTO 00000KT 5SM -DZ BKN006 OVC011 18/17 A2974 RMK AO2 P0001
                 =
2017-05-23 20:55 METAR KLKU 240055Z AUTO 00000KT 5SM DZ BKN006 BKN011 OVC017 18/17 A2974 RMK AO2
                 P0004 =
2017-05-23 20:35 METAR KLKU 240035Z AUTO 00000KT 5SM DZ BKN006 BKN018 OVC070 18/17 A2975 RMK AO2
                 P0004 =
2017-05-23 20:15 METAR KLKU 240015Z AUTO 00000KT 4SM -RA BKN006 OVC018 18/17 A2976 RMK AO2 P0003
                 =
2017-05-23 19:55 METAR KLKU 232355Z AUTO 00000KT 2 1/2SM RA BKN006 BKN009 OVC036 18/17 A2977 RMK
                 AO2 P0005 =
2017-05-23 19:35 METAR KLKU 232335Z AUTO 00000KT 3SM DZ BKN008 OVC024 18/17 A2978 RMK AO2 P0002 =
2017-05-23 19:15 METAR KLKU 232315Z AUTO 00000KT 3SM DZ SCT006 BKN012 OVC033 18/18 A2978 RMK AO2
                 P0001 =
2017-05-23 18:55 METAR KLKU 232255Z AUTO 00000KT 3SM DZ BKN006 BKN013 OVC029 19/18 A2978 RMK AO2
                 P0003 =
2017-05-23 18:35 METAR KLKU 232235Z AUTO 00000KT 3SM DZ BKN006 OVC013 19/18 A2978 RMK AO2 P0001 =
2017-05-23 18:15 METAR KLKU 232215Z AUTO 00000KT 3SM DZ BKN006 BKN011 OVC016 19/18 A2978 RMK AO2
                 =
2017-05-23 17:55 METAR KLKU 232155Z AUTO 00000KT 3SM DZ OVC006 19/18 A2979 RMK AO2 P0003 =
2017-05-23 17:35 METAR KLKU 232135Z AUTO 00000KT 3SM DZ OVC006 19/18 A2979 RMK AO2 P0002 =
2017-05-23 17:15 METAR KLKU 232115Z AUTO 00000KT 2 1/2SM DZ OVC006 19/18 A2979 RMK AO2 P0001 =
2017-05-23 16:55 METAR KLKU 232055Z AUTO 00000KT 3SM +RA BKN006 OVC013 19/18 A2980 RMK AO2 P0006
                 =
2017-05-23 16:35 METAR KLKU 232035Z AUTO 00000KT 4SM -RA SCT006 SCT013 OVC020 19/18 A2981 RMK AO2
                 P0004 =
2017-05-23 16:15 METAR KLKU 232015Z AUTO 00000KT 5SM DZ OVC018 19/18 A2982 RMK AO2 P0002 =
2017-05-23 15:55 METAR KLKU 231955Z AUTO 00000KT 4SM DZ BKN018 OVC030 19/18 A2983 RMK AO2 =
2017-05-23 15:35 METAR KLKU 231935Z AUTO 00000KT 7SM -DZ SCT013 SCT024 OVC030 19/18 A2984 RMK AO2
                 =
2017-05-23 15:15 METAR KLKU 231915Z AUTO 00000KT 2 1/2SM DZ BKN015 BKN025 OVC030 19/17 A2984 RMK
                 AO2 =
2017-05-23 14:55 METAR KLKU 231855Z AUTO 00000KT 7SM DZ OVC015 19/17 A2985 RMK AO2 =
2017-05-23 14:35 METAR KLKU 231835Z AUTO 00000KT 10SM OVC015 19/17 A2986 RMK AO2 =
2017-05-23 14:15 METAR KLKU 231815Z AUTO 00000KT 10SM OVC020 20/17 A2987 RMK AO2 =
2017-05-23 13:55 METAR KLKU 231755Z AUTO 00000KT 10SM OVC020 20/17 A2987 RMK AO2 =
2017-05-23 13:35 METAR KLKU 231735Z AUTO 00000KT 10SM BKN020 OVC026 20/17 A2987 RMK AO2 =
2017-05-23 13:15 METAR KLKU 231715Z AUTO 00000KT 10SM BKN020 BKN027 21/17 A2988 RMK AO2 =
2017-05-23 12:55 METAR KLKU 231655Z AUTO 00000KT 10SM OVC020 20/17 A2989 RMK AO2 =
2017-05-23 12:35 METAR KLKU 231635Z AUTO 00000KT 10SM BKN020 BKN026 20/16 A2990 RMK AO2 =
2017-05-23 12:15 METAR KLKU 231615Z AUTO 04003KT 10SM SCT020 BKN026 20/16 A2990 RMK AO2 =
2017-05-23 11:55 METAR KLKU 231555Z AUTO 00000KT 10SM OVC020 19/16 A2991 RMK AO2 =
2017-05-23 11:35 METAR KLKU 231535Z AUTO 00000KT 10SM -DZ OVC020 19/15 A2992 RMK AO2 =
2017-05-23 11:15 METAR KLKU 231515Z AUTO 00000KT 10SM -DZ OVC022 19/15 A2992 RMK AO2 =
2017-05-23 10:55 METAR KLKU 231455Z AUTO 00000KT 10SM OVC024 19/14 A2993 RMK AO2 =
2017-05-23 10:35 METAR KLKU 231435Z AUTO 00000KT 10SM BKN024 OVC047 19/14 A2993 RMK AO2 =
2017-05-23 10:15 METAR KLKU 231415Z AUTO 03007KT 10SM SCT027 SCT045 19/14 A2993 RMK AO2 =
2017-05-23 09:55 METAR KLKU 231355Z AUTO 00000KT 10SM BKN029 BKN039 BKN070 19/14 A2995 RMK AO2 =
2017-05-23 09:35 METAR KLKU 231335Z AUTO 00000KT 10SM OVC029 18/14 A2996 RMK AO2 =
2017-05-23 09:15 METAR KLKU 231315Z AUTO 00000KT 10SM BKN025 BKN041 BKN050 18/14 A2995 RMK AO2 =
2017-05-23 08:55 METAR KLKU 231255Z AUTO 00000KT 10SM SCT041 BKN050 18/14 A2992 RMK AO2 =
2017-05-23 08:35 METAR KLKU 231235Z AUTO 00000KT 10SM 18/13 A2993 RMK AO2 =
2017-05-23 08:15 METAR KLKU 231215Z AUTO A2993 RMK AO2 PWINO =
2017-05-23 07:55 METAR KLKU 231155Z AUTO A2993 RMK AO2 PWINO =
2017-05-23 07:35 METAR KLKU 231135Z AUTO A2993 RMK AO2 PWINO =
2017-05-23 07:15 METAR KLKU 231115Z AUTO A2993 RMK AO2 PWINO =
2017-05-23 06:55 METAR KLKU 231055Z AUTO A2993 RMK AO2 PWINO =
2017-05-23 06:35 METAR KLKU 231035Z AUTO A2993 RMK AO2 PWINO =
2017-05-23 06:15 METAR KLKU 231015Z AUTO A2994 RMK AO2 PWINO =
2017-05-23 05:55 METAR KLKU 230955Z AUTO A2994 RMK AO2 PWINO =
2017-05-23 05:35 METAR KLKU 230935Z AUTO A2993 RMK AO2 PWINO =
2017-05-23 05:15 METAR KLKU 230915Z AUTO A2993 RMK AO2 PWINO =
2017-05-23 04:55 METAR KLKU 230855Z AUTO 10SM OVC040 19/15 A2993 RMK AO2 =
2017-05-23 04:35 METAR KLKU 230835Z AUTO 03005KT 10SM BKN040 BKN050 19/15 A2993 RMK AO2 =

Support USWX by starting your Amazon purchase here.